createdAt,value
2022-11-20T00:00:45.433Z,2.27
2022-11-20T00:04:07.264Z,2.27
2022-11-20T00:07:28.825Z,2.26
2022-11-20T00:10:52.014Z,2.27
2022-11-20T00:14:14.607Z,2.28
2022-11-20T00:17:36.142Z,2.32
2022-11-20T00:21:03.377Z,2.28
2022-11-20T00:24:25.131Z,2.28
2022-11-20T00:27:48.290Z,2.27
2022-11-20T00:31:11.278Z,2.29
2022-11-20T00:34:32.815Z,2.30
2022-11-20T00:37:54.649Z,2.31
2022-11-20T00:41:17.870Z,2.33
2022-11-20T00:44:41.066Z,2.31
2022-11-20T00:48:02.372Z,2.29
2022-11-20T00:51:26.990Z,2.28
2022-11-20T00:54:48.543Z,2.29
2022-11-20T00:58:14.295Z,2.30
2022-11-20T01:01:38.646Z,2.30
2022-11-20T01:05:00.182Z,2.26
2022-11-20T01:08:21.884Z,2.26
2022-11-20T01:11:45.306Z,2.27
2022-11-20T01:15:07.575Z,2.23
2022-11-20T01:18:30.594Z,2.24
2022-11-20T01:21:54.936Z,2.22
2022-11-20T01:25:16.822Z,2.25
2022-11-20T01:28:39.213Z,2.19
2022-11-20T01:32:00.969Z,2.20
2022-11-20T01:35:24.099Z,2.20
2022-11-20T01:38:46.134Z,2.22
2022-11-20T01:42:25.102Z,2.21
2022-11-20T01:46:06.467Z,2.21
2022-11-20T01:49:36.557Z,2.23
2022-11-20T01:53:03.860Z,2.21
2022-11-20T01:56:26.855Z,2.22
2022-11-20T01:59:54.131Z,2.21
2022-11-20T02:03:19.782Z,2.24
2022-11-20T02:06:44.805Z,2.24
2022-11-20T02:10:08.628Z,2.25
2022-11-20T02:13:46.006Z,2.22
2022-11-20T02:17:07.802Z,2.22
2022-11-20T02:20:29.799Z,2.21
2022-11-20T02:24:12.251Z,2.21
2022-11-20T02:27:34.039Z,2.23
2022-11-20T02:30:55.599Z,2.23
2022-11-20T02:34:17.394Z,2.22
2022-11-20T02:37:41.927Z,2.19
2022-11-20T02:41:05.321Z,2.19
2022-11-20T02:44:27.107Z,2.15
2022-11-20T02:47:48.731Z,2.12
2022-11-20T02:51:10.662Z,2.14
2022-11-20T02:54:32.431Z,2.14
2022-11-20T02:57:55.868Z,2.14
2022-11-20T03:01:17.891Z,2.15
2022-11-20T03:04:39.554Z,2.15
2022-11-20T03:08:01.522Z,2.14
2022-11-20T03:11:23.622Z,2.13
2022-11-20T03:14:51.624Z,2.14
2022-11-20T03:18:14.757Z,2.15
2022-11-20T03:21:36.788Z,2.17
2022-11-20T03:24:58.369Z,2.19
2022-11-20T03:28:20.297Z,2.17
2022-11-20T03:31:43.718Z,2.17
2022-11-20T03:35:06.150Z,2.19
2022-11-20T03:38:27.775Z,2.19
2022-11-20T03:41:49.634Z,2.16
2022-11-20T03:45:11.780Z,2.16
2022-11-20T03:48:35.711Z,2.14
2022-11-20T03:51:57.279Z,2.14
2022-11-20T03:55:19.303Z,2.14
2022-11-20T03:58:42.010Z,2.14
2022-11-20T04:02:03.669Z,2.14
2022-11-20T04:05:26.825Z,2.13
2022-11-20T04:08:53.640Z,2.11
2022-11-20T04:12:16.018Z,2.10
2022-11-20T04:15:38.644Z,2.14
2022-11-20T04:19:05.681Z,2.12
2022-11-20T04:22:29.122Z,2.11
2022-11-20T04:25:51.139Z,2.11
2022-11-20T04:29:13.625Z,2.10
2022-11-20T04:32:35.350Z,2.10
2022-11-20T04:35:57.010Z,2.08
2022-11-20T04:39:20.448Z,2.08
2022-11-20T04:42:42.346Z,2.03
2022-11-20T04:46:04.006Z,2.03
2022-11-20T04:49:25.787Z,2.05
2022-11-20T04:52:47.626Z,2.05
2022-11-20T04:56:12.986Z,2.06
2022-11-20T04:59:34.609Z,2.07
2022-11-20T05:02:56.506Z,2.05
2022-11-20T05:06:20.927Z,2.04
2022-11-20T05:09:42.717Z,2.04
2022-11-20T05:13:05.428Z,2.04
2022-11-20T05:16:27.499Z,2.05
2022-11-20T05:19:52.960Z,2.05
2022-11-20T05:23:14.586Z,2.03
2022-11-20T05:26:36.463Z,2.04
2022-11-20T05:29:59.775Z,2.04
2022-11-20T05:33:21.479Z,2.06
2022-11-20T05:36:43.158Z,2.06
2022-11-20T05:40:06.716Z,2.05
2022-11-20T05:43:28.898Z,2.02
2022-11-20T05:46:52.236Z,2.02
2022-11-20T05:50:14.524Z,2.02
2022-11-20T05:53:36.908Z,2.03
2022-11-20T05:56:58.910Z,2.05
2022-11-20T06:00:20.929Z,2.04
2022-11-20T06:03:47.060Z,2.02
2022-11-20T06:07:08.714Z,2.02
2022-11-20T06:10:30.708Z,2.03
2022-11-20T06:13:53.094Z,2.02
2022-11-20T06:17:15.310Z,1.99
2022-11-20T06:20:42.096Z,2.00
2022-11-20T06:24:04.381Z,1.99
2022-11-20T06:27:26.268Z,1.98
2022-11-20T06:30:48.706Z,1.97
2022-11-20T06:34:10.475Z,1.97
2022-11-20T06:37:33.532Z,1.95
2022-11-20T06:40:55.055Z,1.97
2022-11-20T06:44:17.930Z,1.93
2022-11-20T06:47:39.906Z,1.94
2022-11-20T06:51:01.909Z,1.90
2022-11-20T06:54:25.121Z,1.94
2022-11-20T06:57:48.001Z,1.94
2022-11-20T07:01:14.571Z,1.94
2022-11-20T07:04:36.308Z,1.94
2022-11-20T07:07:58.443Z,1.94
2022-11-20T07:11:21.661Z,1.95
2022-11-20T07:14:43.418Z,1.92
2022-11-20T07:18:05.566Z,1.91
2022-11-20T07:21:27.452Z,1.92
2022-11-20T07:24:49.862Z,1.92
2022-11-20T07:28:12.868Z,1.91
2022-11-20T07:31:34.562Z,1.90
2022-11-20T07:34:56.511Z,1.91
2022-11-20T07:38:18.416Z,1.90
2022-11-20T07:41:40.366Z,1.91
2022-11-20T07:45:03.460Z,1.91
2022-11-20T07:48:25.537Z,1.92
2022-11-20T07:51:51.773Z,1.90
2022-11-20T07:55:14.456Z,1.93
2022-11-20T07:58:36.074Z,1.94
2022-11-20T08:01:59.283Z,1.96
2022-11-20T08:05:21.366Z,1.98
2022-11-20T08:08:43.229Z,1.99
2022-11-20T08:12:22.810Z,2.03
2022-11-20T08:15:49.583Z,2.04
2022-11-20T08:19:13.042Z,2.06
2022-11-20T08:22:34.707Z,2.09
2022-11-20T08:25:56.434Z,2.11
2022-11-20T08:29:18.540Z,2.13
2022-11-20T08:32:40.352Z,2.13
2022-11-20T08:36:05.010Z,2.15
2022-11-20T08:39:26.981Z,2.20
2022-11-20T08:42:49.719Z,2.20
2022-11-20T08:46:11.439Z,2.22
2022-11-20T08:49:33.011Z,2.23
2022-11-20T08:52:56.215Z,2.27
2022-11-20T08:56:18.917Z,2.27
2022-11-20T09:03:22.487Z,2.33
2022-11-20T09:06:44.469Z,2.37
2022-11-20T09:10:23.756Z,2.35
2022-11-20T09:13:45.748Z,2.38
2022-11-20T09:17:08.568Z,2.42
2022-11-20T09:20:32.237Z,2.42
2022-11-20T09:23:53.878Z,2.43
2022-11-20T09:27:21.553Z,2.46
2022-11-20T09:30:43.221Z,2.51
2022-11-20T09:34:04.845Z,2.56
2022-11-20T09:37:26.629Z,2.56
2022-11-20T09:40:57.443Z,2.56
2022-11-20T09:44:37.157Z,2.59
2022-11-20T09:48:27.967Z,2.62
2022-11-20T09:51:59.940Z,2.65
2022-11-20T09:55:22.414Z,2.69
2022-11-20T09:58:48.031Z,2.74
2022-11-20T10:02:20.626Z,2.75
2022-11-20T10:05:47.149Z,2.77
2022-11-20T10:09:23.464Z,2.80
2022-11-20T10:13:01.718Z,2.80
2022-11-20T10:16:40.594Z,2.82
2022-11-20T10:20:19.579Z,2.85
2022-11-20T10:23:59.823Z,2.86
2022-11-20T10:27:52.037Z,2.90
2022-11-20T10:31:19.535Z,2.94
2022-11-20T10:34:51.152Z,2.97
2022-11-20T10:38:20.518Z,3.00
2022-11-20T10:41:44.012Z,2.99
2022-11-20T10:45:21.143Z,3.00
2022-11-20T10:48:45.274Z,3.00
2022-11-20T10:52:15.095Z,2.98
2022-11-20T10:55:44.705Z,2.99
2022-11-20T10:59:37.629Z,2.99
2022-11-20T11:03:03.394Z,2.98
2022-11-20T11:06:34.884Z,2.97
2022-11-20T11:09:58.090Z,2.95
2022-11-20T11:13:27.378Z,2.97
2022-11-20T11:16:53.674Z,2.98
2022-11-20T11:20:20.164Z,3.00
2022-11-20T11:23:42.921Z,3.02
2022-11-20T11:27:16.798Z,3.04
2022-11-20T11:30:46.738Z,3.03
2022-11-20T11:34:09.565Z,3.01
2022-11-20T11:37:37.037Z,2.99
2022-11-20T11:40:59.848Z,3.02
2022-11-20T11:44:42.498Z,3.04
2022-11-20T11:48:11.187Z,3.02
2022-11-20T11:51:40.210Z,3.03
2022-11-20T11:55:11.450Z,3.03
2022-11-20T11:58:43.832Z,3.01
2022-11-20T12:02:17.765Z,2.97
2022-11-20T12:05:44.733Z,2.96
2022-11-20T12:09:10.569Z,2.95
2022-11-20T12:12:37.159Z,2.97
2022-11-20T12:15:59.157Z,2.92
2022-11-20T12:19:21.499Z,2.87
2022-11-20T12:22:54.437Z,2.83
2022-11-20T12:26:30.187Z,2.82
2022-11-20T12:30:02.868Z,2.79
2022-11-20T12:33:56.694Z,2.75
2022-11-20T12:37:32.079Z,2.73
2022-11-20T12:41:02.886Z,2.69
2022-11-20T12:45:00.708Z,2.62
2022-11-20T12:48:46.524Z,2.59
2022-11-20T12:52:25.939Z,2.55
2022-11-20T12:55:54.587Z,2.51
2022-11-20T12:59:35.879Z,2.49
2022-11-20T13:03:35.455Z,2.46
2022-11-20T13:06:58.766Z,2.44
2022-11-20T13:10:26.895Z,2.45
2022-11-20T13:14:10.986Z,2.44
2022-11-20T13:17:44.728Z,2.43
2022-11-20T13:21:16.225Z,2.40
2022-11-20T13:24:37.920Z,2.40
2022-11-20T13:28:04.575Z,2.40
2022-11-20T13:31:35.878Z,2.41
2022-11-20T13:35:01.081Z,2.41
2022-11-20T13:38:22.674Z,2.42
2022-11-20T13:41:44.422Z,2.42
2022-11-20T13:45:13.701Z,2.39
2022-11-20T13:48:40.535Z,2.40
2022-11-20T13:52:29.246Z,2.38
2022-11-20T13:55:58.400Z,2.33
2022-11-20T13:59:34.272Z,2.32
2022-11-20T14:03:25.008Z,2.30
2022-11-20T14:07:02.667Z,2.30
2022-11-20T14:10:31.759Z,2.31
2022-11-20T14:13:57.239Z,2.31
2022-11-20T14:17:26.459Z,2.34
2022-11-20T14:20:48.980Z,2.34
2022-11-20T14:24:14.034Z,2.32
2022-11-20T14:27:39.628Z,2.30
2022-11-20T14:31:01.571Z,2.30
2022-11-20T14:34:28.931Z,2.31
2022-11-20T14:37:50.507Z,2.28
2022-11-20T14:41:20.075Z,2.27
2022-11-20T14:44:44.522Z,2.26
2022-11-20T14:48:06.961Z,2.27
2022-11-20T14:51:32.676Z,2.27
2022-11-20T14:54:56.758Z,2.29
2022-11-20T14:58:24.522Z,2.30
2022-11-20T15:01:57.559Z,2.32
2022-11-20T15:05:21.699Z,2.34
2022-11-20T15:08:53.175Z,2.35
2022-11-20T15:12:20.054Z,2.36
2022-11-20T15:15:48.743Z,2.36
2022-11-20T15:19:22.201Z,2.37
2022-11-20T15:22:44.405Z,2.38
2022-11-20T15:26:07.038Z,2.36
2022-11-20T15:29:28.955Z,2.37
2022-11-20T15:32:51.068Z,2.36
2022-11-20T15:36:14.553Z,2.37
2022-11-20T15:39:36.707Z,2.38
2022-11-20T15:43:13.233Z,2.38
2022-11-20T15:46:41.008Z,2.38
2022-11-20T15:50:03.148Z,2.39
2022-11-20T15:53:26.376Z,2.39
2022-11-20T15:56:48.565Z,2.39
2022-11-20T16:00:12.062Z,2.40
2022-11-20T16:03:34.087Z,2.41
2022-11-20T16:06:55.946Z,2.40
2022-11-20T16:10:19.763Z,2.40
2022-11-20T16:13:59.503Z,2.41
2022-11-20T16:17:41.696Z,2.40
2022-11-20T16:21:03.563Z,2.39
2022-11-20T16:24:25.884Z,2.40
2022-11-20T16:27:49.108Z,2.38
2022-11-20T16:31:12.654Z,2.36
2022-11-20T16:34:34.939Z,2.34
2022-11-20T16:37:56.543Z,2.34
2022-11-20T16:41:18.502Z,2.31
2022-11-20T16:44:41.956Z,2.31
2022-11-20T16:48:03.799Z,2.30
2022-11-20T16:51:26.487Z,2.28
2022-11-20T16:54:48.479Z,2.31
2022-11-20T16:58:10.767Z,2.29
2022-11-20T17:01:36.040Z,2.27
2022-11-20T17:04:58.193Z,2.28
2022-11-20T17:08:20.438Z,2.29
2022-11-20T17:11:42.547Z,2.27
2022-11-20T17:15:04.222Z,2.27
2022-11-20T17:18:29.157Z,2.26
2022-11-20T17:21:50.998Z,2.26
2022-11-20T17:25:12.759Z,2.26
2022-11-20T17:28:35.590Z,2.28
2022-11-20T17:31:57.473Z,2.27
2022-11-20T17:35:20.832Z,2.24
2022-11-20T17:38:43.368Z,2.24
2022-11-20T17:42:22.965Z,2.21
2022-11-20T17:45:45.150Z,2.20
2022-11-20T17:49:07.549Z,2.22
2022-11-20T17:52:30.763Z,2.21
2022-11-20T17:56:14.251Z,2.22
2022-11-20T17:59:40.312Z,2.22
2022-11-20T18:03:02.294Z,2.22
2022-11-20T18:06:26.224Z,2.22
2022-11-20T18:09:50.328Z,2.25
2022-11-20T18:13:11.990Z,2.24
2022-11-20T18:16:36.672Z,2.22
2022-11-20T18:20:28.599Z,2.23
2022-11-20T18:23:41.790Z,2.22
2022-11-20T18:27:05.895Z,2.19
2022-11-20T18:30:27.784Z,2.18
2022-11-20T18:33:49.735Z,2.17
2022-11-20T18:37:14.795Z,2.19
2022-11-20T18:40:36.689Z,2.20
2022-11-20T18:44:18.001Z,2.18
2022-11-20T18:47:40.241Z,2.19
2022-11-20T18:51:06.809Z,2.17
2022-11-20T18:54:28.345Z,2.17
2022-11-20T18:57:50.154Z,2.16
2022-11-20T19:01:13.371Z,2.18
2022-11-20T19:04:35.247Z,2.18
2022-11-20T19:07:57.245Z,2.17
2022-11-20T19:11:19.630Z,2.15
2022-11-20T19:14:42.108Z,2.14
2022-11-20T19:18:05.568Z,2.14
2022-11-20T19:21:28.240Z,2.14
2022-11-20T19:24:50.685Z,2.15
2022-11-20T19:28:12.395Z,2.14
2022-11-20T19:31:34.673Z,2.13
2022-11-20T19:34:58.037Z,2.14
2022-11-20T19:38:19.661Z,2.14
2022-11-20T19:41:42.465Z,2.15
2022-11-20T19:45:04.391Z,2.15
2022-11-20T19:48:26.423Z,2.15
2022-11-20T19:51:51.024Z,2.11
2022-11-20T19:55:12.682Z,2.12
2022-11-20T19:58:34.582Z,2.11
2022-11-20T20:01:56.333Z,2.07
2022-11-20T20:05:18.371Z,2.09
2022-11-20T20:08:42.093Z,2.09
2022-11-20T20:12:03.843Z,2.10
2022-11-20T20:15:25.942Z,2.11
2022-11-20T20:18:48.385Z,2.10
2022-11-20T20:22:10.098Z,2.09
2022-11-20T20:25:33.480Z,2.09
2022-11-20T20:28:55.692Z,2.07
2022-11-20T20:32:17.488Z,2.06
2022-11-20T20:35:41.691Z,2.05
2022-11-20T20:39:03.654Z,2.08
2022-11-20T20:42:27.010Z,2.08
2022-11-20T20:45:49.248Z,2.06
2022-11-20T20:49:11.216Z,2.07
2022-11-20T20:52:32.922Z,2.09
2022-11-20T20:55:56.381Z,2.06
2022-11-20T20:59:19.573Z,2.03
2022-11-20T21:02:41.727Z,2.03
2022-11-20T21:06:04.568Z,2.05
2022-11-20T21:09:26.583Z,2.04
2022-11-20T21:12:48.510Z,2.06
2022-11-20T21:16:12.382Z,2.03
2022-11-20T21:19:34.455Z,2.04
2022-11-20T21:22:55.979Z,2.02
2022-11-20T21:26:18.794Z,2.02
2022-11-20T21:29:40.779Z,2.03
2022-11-20T21:33:04.026Z,2.02
2022-11-20T21:36:27.095Z,2.01
2022-11-20T21:39:52.024Z,1.98
2022-11-20T21:43:13.906Z,1.99
2022-11-20T21:46:39.634Z,1.95
2022-11-20T21:50:02.820Z,1.93
2022-11-20T21:53:24.474Z,1.91
2022-11-20T21:56:46.400Z,1.91
2022-11-20T22:00:09.616Z,1.88
2022-11-20T22:03:34.481Z,1.86
2022-11-20T22:06:57.695Z,1.84
2022-11-20T22:10:19.597Z,1.81
2022-11-20T22:13:59.480Z,1.77
2022-11-20T22:17:41.555Z,1.77
2022-11-20T22:21:07.882Z,1.76
2022-11-20T22:24:31.087Z,1.75
2022-11-20T22:27:52.958Z,1.73
2022-11-20T22:31:14.515Z,1.72
2022-11-20T22:34:37.070Z,1.69
2022-11-20T22:37:59.163Z,1.69
2022-11-20T22:41:25.011Z,1.66
2022-11-20T22:44:46.800Z,1.65
2022-11-20T22:48:08.319Z,1.66
2022-11-20T22:51:31.738Z,1.66
2022-11-20T22:54:53.886Z,1.67
2022-11-20T22:58:17.315Z,1.65
2022-11-20T23:01:39.189Z,1.66
2022-11-20T23:05:00.695Z,1.66
2022-11-20T23:08:22.503Z,1.62
2022-11-20T23:11:44.262Z,1.61
2022-11-20T23:15:08.654Z,1.55
2022-11-20T23:18:30.298Z,1.49
2022-11-20T23:21:51.878Z,1.43
2022-11-20T23:25:13.871Z,1.37
2022-11-20T23:28:36.150Z,1.30
2022-11-20T23:31:59.499Z,1.24
2022-11-20T23:35:21.251Z,1.22
2022-11-20T23:38:43.644Z,1.19
2022-11-20T23:42:05.887Z,1.16
2022-11-20T23:45:27.491Z,1.14
2022-11-20T23:48:50.289Z,1.10
2022-11-20T23:52:11.934Z,1.11
2022-11-20T23:55:34.418Z,1.06
2022-11-20T23:58:56.130Z,1.06
